Flight Track Log - Related Links

Times and Time Zones

All times are in EST time to prevent confusion due to time zone crossing. See the DAL2351 flight status page for this flight to view local times or setup timezone preferences in your user account.

Time Position Orientation Groundspeed Altitude Reporting Facility
EST Latitude Longitude Course Direction KTS MPH feet Rate Location/Type
Fri 09:57:22 AM 35.8686 -78.8089 218° Southwest 169 194 1,100  Level Washington Center
Fri 09:58:17 AM 35.8281 -78.8481 263° West 221 254 2,700 2,690 Climbing Washington Center
Fri 09:59:18 AM 35.8194 -78.9297 273° West 237 273 6,300 3,379 Climbing Washington Center
Fri 10:00:00 AM 35.8222 -78.9861 270° West 272 313 8,500 2,760 Climbing Washington Center
Fri 10:00:58 AM 35.8217 -79.0783 268° West 272 313 10,900 2,319 Climbing Washington Center
Fri 10:01:59 AM 35.8183 -79.1833 269° West 295 339 13,100 2,281 Climbing Washington Center
Fri 10:02:59 AM 35.8167 -79.3089 269° West 332 382 15,500 2,154 Climbing Washington Center
Fri 10:03:56 AM 35.8153 -79.4267 268° West 377 434 17,300 1,897 Climbing Atlanta Center
Fri 10:04:56 AM 35.8117 -79.5575 266° West 384 442 19,200 2,200 Climbing Atlanta Center
Fri 10:05:56 AM 35.8036 -79.6833 249° West 378 435 21,700 2,300 Climbing Atlanta Center
Fri 10:06:56 AM 35.7661 -79.8031 248° West 373 429 23,800 1,850 Climbing Atlanta Center
Fri 10:07:56 AM 35.7244 -79.9281 247° West 385 443 25,400 1,700 Climbing Atlanta Center
Fri 10:08:56 AM 35.6828 -80.0503 249° West 391 450 27,200 1,300 Climbing Atlanta Center
Fri 10:09:56 AM 35.6467 -80.1644 247° West 404 465 28,000 400 Climbing Atlanta Center
Fri 10:10:56 AM 35.6044 -80.2842 247° West 394 453 28,000  Level Atlanta Center
Fri 10:11:56 AM 35.5622 -80.4086 251° West 394 453 28,000  Level Atlanta Center
Fri 10:12:56 AM 35.5247 -80.5456 250° West 394 453 28,000  Level Atlanta Center
Fri 10:13:56 AM 35.4864 -80.6719 251° West 394 453 28,000  Level Atlanta Center
Fri 10:14:56 AM 35.4503 -80.7983 251° West 388 447 28,000  Level Atlanta Center
Fri 10:15:56 AM 35.4139 -80.9247 249° West 396 456 28,000  Level Atlanta Center
Fri 10:16:56 AM 35.3753 -81.0511 251° West 396 456 28,000  Level Atlanta Center
Fri 10:17:56 AM 35.3386 -81.1797 252° West 396 456 28,000  Level Atlanta Center
Fri 10:18:56 AM 35.3078 -81.2953 250° West 396 456 28,000  Level Atlanta Center
Fri 10:19:56 AM 35.2689 -81.4236 251° West 396 456 28,000  Level Atlanta Center
Fri 10:20:56 AM 35.2339 -81.5469 250° West 390 449 28,000  Level Atlanta Center
Fri 10:21:56 AM 35.1947 -81.6750 250° West 390 449 28,000  Level Atlanta Center
Fri 10:22:56 AM 35.1536 -81.8136 250° West 397 457 28,000  Level Atlanta Center
Fri 10:23:56 AM 35.1161 -81.9414 250° West 397 457 28,000  Level Atlanta Center
Fri 10:24:56 AM 35.0786 -82.0667 249° West 392 451 28,000  Level Atlanta Center
Fri 10:25:56 AM 35.0389 -82.1919 249° West 392 451 28,000  Level Atlanta Center
Fri 10:26:56 AM 35.0050 -82.2992 249° West 399 459 28,000  Level Atlanta Center
Fri 10:27:56 AM 34.9669 -82.4217 249° West 389 448 28,000  Level Atlanta Center
Fri 10:28:56 AM 34.9267 -82.5467 251° West 389 448 28,000 -600 Level Atlanta Center
Fri 10:29:56 AM 34.8886 -82.6789 249° West 394 453 26,800 -900 Descending Atlanta Center
Fri 10:30:56 AM 34.8483 -82.8061 251° West 400 460 26,200 -800 Descending Atlanta Center
Fri 10:31:56 AM 34.8100 -82.9383 236° Southwest 412 474 25,200 -1,100 Descending Atlanta Center
Fri 10:32:56 AM 34.7400 -83.0631 224° Southwest 410 472 24,000 -1,150 Descending Atlanta Center
Fri 10:33:56 AM 34.6553 -83.1625 225° Southwest 417 480 22,900 -1,200 Descending Atlanta Center
Fri 10:34:56 AM 34.5725 -83.2619 224° Southwest 417 480 21,600 -1,500 Descending Atlanta Center
Fri 10:35:56 AM 34.4894 -83.3608 227° Southwest 417 480 19,900 -1,850 Descending Atlanta Center
Fri 10:36:56 AM 34.4128 -83.4597 224° Southwest 410 472 17,900 -1,700 Descending Atlanta Center
Fri 10:37:56 AM 34.3317 -83.5558 224° Southwest 410 472 16,500 -1,350 Descending Atlanta Center
Fri 10:38:56 AM 34.2528 -83.6467 225° Southwest 410 472 15,200 -1,250 Descending Atlanta Center
Fri 10:39:56 AM 34.1758 -83.7400 225° Southwest 403 464 14,000 -1,233 Descending Atlanta Center
Fri 10:41:56 AM 34.0467 -83.8983 243° Southwest 352 405 11,500 -1,267 Descending Atlanta Center
Fri 10:42:56 AM 34.0114 -83.9811 243° Southwest 305 351 10,200 -750 Descending Atlanta Center
Fri 10:43:56 AM 33.9822 -84.0514 213° Southwest 260 299 10,000 -100 Descending Atlanta Center
Fri 10:44:56 AM 33.9342 -84.0889 178° South 207 238 10,000 -750 Level Atlanta Center
Fri 10:45:56 AM 33.8672 -84.0864 178° South 207 238 8,500 -1,500 Descending Atlanta Center
Fri 10:46:56 AM 33.7942 -84.0839 191° South 229 264 7,000 -1,250 Descending Atlanta Center
Fri 10:47:56 AM 33.7275 -84.0989 216° Southwest 239 275 6,000 -659 Descending Atlanta Center
Fri 10:49:58 AM 33.6500 -84.1667 270° West 171 197 5,000 -580 Descending Atlanta TRACON
Fri 10:50:52 AM 33.6500 -84.2167 270° West 173 199 4,300 -895 Descending Atlanta TRACON
Fri 10:51:52 AM 33.6500 -84.2833 270° West 172 198 3,300 -950 Descending Atlanta TRACON
Fri 10:52:52 AM 33.6500 -84.3333 270° West 156 180 2,400 -857 Descending Atlanta TRACON
Fri 10:53:58 AM 33.6500 -84.3833 270° West 146 168 1,500 -818 Descending Atlanta TRACON

Login

Don't have an account? Register now (free) for customized features, flight alerts, and more!